createdAt,value
2019-04-16T00:00:26.450Z,5.53
2019-04-16T00:02:57.335Z,6.23
2019-04-16T00:05:34.465Z,5.27
2019-04-16T00:08:19.478Z,5.30
2019-04-16T00:10:40.030Z,5.50
2019-04-16T00:13:28.985Z,5.43
2019-04-16T00:15:58.589Z,5.23
2019-04-16T00:18:27.480Z,4.47
2019-04-16T00:21:13.962Z,5.40
2019-04-16T00:23:46.737Z,5.10
2019-04-16T00:26:15.120Z,5.67
2019-04-16T00:28:44.258Z,4.97
2019-04-16T00:31:13.137Z,5.93
2019-04-16T00:33:42.827Z,5.30
2019-04-16T00:36:12.563Z,5.73
2019-04-16T00:38:43.293Z,5.27
2019-04-16T00:41:12.288Z,5.47
2019-04-16T00:43:44.023Z,5.53
2019-04-16T00:46:12.238Z,5.97
2019-04-16T00:48:41.521Z,5.47
2019-04-16T00:51:10.518Z,5.40
2019-04-16T00:53:39.759Z,5.30
2019-04-16T00:56:09.509Z,7.47
2019-04-16T00:58:38.516Z,6.33
2019-04-16T01:01:07.423Z,5.47
2019-04-16T01:03:36.257Z,6.83
2019-04-16T01:06:07.978Z,5.53
2019-04-16T01:08:35.827Z,5.70
2019-04-16T01:11:04.767Z,6.40
2019-04-16T01:13:33.711Z,5.30
2019-04-16T01:16:03.800Z,5.17
2019-04-16T01:18:33.238Z,5.60
2019-04-16T01:21:03.971Z,5.33
2019-04-16T01:23:32.765Z,5.27
2019-04-16T01:26:01.654Z,5.63
2019-04-16T01:28:32.681Z,5.93
2019-04-16T01:31:08.390Z,5.03
2019-04-16T01:33:55.572Z,5.97
2019-04-16T01:36:31.815Z,6.13
2019-04-16T01:39:15.614Z,5.83
2019-04-16T01:41:33.070Z,5.87
2019-04-16T01:44:02.029Z,5.43
2019-04-16T01:46:32.875Z,6.67
2019-04-16T01:49:01.921Z,5.30
2019-04-16T01:51:31.097Z,5.83
2019-04-16T01:54:00.114Z,5.33
2019-04-16T01:56:29.184Z,6.17
2019-04-16T01:58:58.448Z,6.17
2019-04-16T02:01:27.708Z,5.87
2019-04-16T02:03:56.599Z,6.90
2019-04-16T02:06:26.552Z,5.83
2019-04-16T02:08:55.623Z,5.70
2019-04-16T02:11:24.603Z,5.60
2019-04-16T02:13:53.606Z,4.30
2019-04-16T02:16:25.168Z,5.80
2019-04-16T02:18:53.314Z,5.33
2019-04-16T02:21:22.307Z,5.77
2019-04-16T02:23:51.222Z,5.73
2019-04-16T02:26:20.552Z,5.73
2019-04-16T02:28:50.626Z,7.03
2019-04-16T02:31:20.256Z,5.67
2019-04-16T02:33:49.253Z,5.83
2019-04-16T02:36:18.025Z,6.47
2019-04-16T02:38:52.742Z,6.17
2019-04-16T02:41:17.407Z,6.40
2019-04-16T02:43:46.341Z,6.67
2019-04-16T02:46:15.449Z,5.60
2019-04-16T02:48:50.216Z,6.27
2019-04-16T02:51:19.780Z,6.57
2019-04-16T02:53:50.514Z,7.10
2019-04-16T02:56:37.118Z,6.83
2019-04-16T02:59:13.044Z,7.07
2019-04-16T03:01:49.453Z,6.37
2019-04-16T03:04:26.748Z,7.17
2019-04-16T03:06:53.693Z,7.20
2019-04-16T03:09:22.456Z,7.33
2019-04-16T03:11:51.551Z,7.60
2019-04-16T03:14:20.443Z,7.13
2019-04-16T03:17:02.652Z,6.17
2019-04-16T03:19:33.082Z,6.80
2019-04-16T03:22:03.301Z,7.17
2019-04-16T03:24:32.728Z,7.47
2019-04-16T03:27:04.452Z,7.30
2019-04-16T03:29:32.155Z,7.70
2019-04-16T03:32:01.131Z,7.37
2019-04-16T03:34:30.028Z,7.13
2019-04-16T03:37:01.939Z,7.57
2019-04-16T03:39:30.806Z,7.17
2019-04-16T03:41:59.754Z,7.10
2019-04-16T03:44:28.649Z,7.47
2019-04-16T03:46:57.643Z,8.00
2019-04-16T03:49:27.776Z,7.03
2019-04-16T03:51:57.591Z,8.77
2019-04-16T03:54:26.575Z,7.27
2019-04-16T03:56:55.681Z,7.20
2019-04-16T03:59:24.563Z,8.03
2019-04-16T04:01:53.556Z,7.03
2019-04-16T04:04:22.554Z,7.53
2019-04-16T04:06:51.556Z,7.93
2019-04-16T04:09:22.159Z,8.03
2019-04-16T04:11:51.073Z,8.63
2019-04-16T04:14:23.282Z,7.93
2019-04-16T04:16:50.608Z,7.53
2019-04-16T04:19:19.492Z,8.03
2019-04-16T04:21:50.674Z,7.47
2019-04-16T04:24:19.211Z,7.57
2019-04-16T04:26:48.167Z,7.97
2019-04-16T04:29:17.097Z,7.73
2019-04-16T04:31:46.199Z,6.67
2019-04-16T04:34:17.183Z,7.23
2019-04-16T04:36:45.627Z,7.33
2019-04-16T04:39:15.724Z,8.60
2019-04-16T04:41:44.907Z,8.07
2019-04-16T04:44:14.046Z,8.10
2019-04-16T04:46:43.278Z,6.73
2019-04-16T04:49:13.448Z,7.83
2019-04-16T04:51:43.500Z,7.97
2019-04-16T04:54:12.629Z,7.93
2019-04-16T04:56:41.425Z,8.30
2019-04-16T04:59:10.190Z,8.07
2019-04-16T05:01:41.962Z,7.47
2019-04-16T05:04:11.299Z,7.43
2019-04-16T05:06:41.686Z,8.40
2019-04-16T05:09:10.599Z,8.60
2019-04-16T05:11:39.379Z,9.47
2019-04-16T05:14:08.301Z,8.13
2019-04-16T05:16:37.113Z,7.77
2019-04-16T05:19:05.956Z,8.77
2019-04-16T05:21:34.807Z,7.73
2019-04-16T05:24:03.745Z,8.40
2019-04-16T05:26:33.566Z,7.57
2019-04-16T05:29:17.019Z,8.20
2019-04-16T05:31:44.871Z,8.83
2019-04-16T05:34:16.994Z,7.33
2019-04-16T05:36:47.713Z,9.23
2019-04-16T05:39:14.730Z,7.43
2019-04-16T05:41:43.532Z,8.10
2019-04-16T05:44:12.512Z,8.53
2019-04-16T05:46:46.398Z,7.63
2019-04-16T05:49:11.929Z,7.60
2019-04-16T05:51:41.675Z,7.33
2019-04-16T05:54:27.406Z,7.60
2019-04-16T05:56:57.857Z,6.73
2019-04-16T05:59:26.724Z,8.00
2019-04-16T06:02:15.134Z,7.90
2019-04-16T06:04:42.779Z,7.17
2019-04-16T06:07:11.623Z,7.37
2019-04-16T06:09:41.514Z,6.43
2019-04-16T06:12:11.170Z,7.97
2019-04-16T06:14:41.710Z,6.93
2019-04-16T06:17:12.209Z,7.27
2019-04-16T06:19:47.432Z,7.60
2019-04-16T06:22:30.195Z,7.87
2019-04-16T06:25:16.981Z,7.53
2019-04-16T06:28:04.847Z,7.37
2019-04-16T06:30:51.355Z,7.17
2019-04-16T06:33:27.821Z,8.17
2019-04-16T06:35:58.207Z,7.13
2019-04-16T06:38:31.653Z,7.27
2019-04-16T06:41:18.348Z,6.73
2019-04-16T06:43:58.283Z,8.00
2019-04-16T06:46:29.732Z,6.57
2019-04-16T06:49:17.793Z,7.77
2019-04-16T06:51:59.684Z,7.77
2019-04-16T06:54:33.199Z,7.27
2019-04-16T06:57:12.948Z,8.10
2019-04-16T06:59:52.195Z,7.87
2019-04-16T07:02:43.071Z,7.63
2019-04-16T07:05:32.124Z,8.47
2019-04-16T07:08:02.049Z,7.23
2019-04-16T07:10:44.058Z,7.37
2019-04-16T07:13:03.007Z,7.93
2019-04-16T07:15:31.769Z,7.43
2019-04-16T07:18:02.520Z,6.50
2019-04-16T07:20:31.093Z,6.27
2019-04-16T07:22:59.885Z,7.90
2019-04-16T07:25:29.749Z,6.80
2019-04-16T07:28:00.630Z,7.00
2019-04-16T07:30:40.548Z,7.10
2019-04-16T07:33:11.356Z,6.57
2019-04-16T07:35:53.449Z,7.97
2019-04-16T07:38:26.535Z,7.87
2019-04-16T07:40:57.102Z,7.50
2019-04-16T07:43:33.327Z,6.03
2019-04-16T07:46:18.818Z,7.00
2019-04-16T07:48:55.701Z,6.27
2019-04-16T07:51:26.200Z,6.40
2019-04-16T07:54:05.499Z,6.30
2019-04-16T07:56:34.960Z,6.83
2019-04-16T07:59:03.972Z,6.53
2019-04-16T08:01:32.896Z,6.67
2019-04-16T08:04:03.176Z,6.73
2019-04-16T08:06:32.238Z,5.70
2019-04-16T08:09:01.123Z,6.80
2019-04-16T08:11:29.935Z,6.70
2019-04-16T08:13:58.856Z,6.50
2019-04-16T08:16:27.715Z,6.30
2019-04-16T08:18:56.713Z,7.33
2019-04-16T08:21:25.620Z,6.43
2019-04-16T08:24:11.305Z,6.53
2019-04-16T08:26:41.556Z,6.33
2019-04-16T08:29:10.692Z,6.57
2019-04-16T08:31:44.516Z,6.40
2019-04-16T08:34:11.718Z,5.40
2019-04-16T08:36:40.569Z,6.03
2019-04-16T08:39:11.415Z,5.93
2019-04-16T08:41:40.247Z,5.47
2019-04-16T08:44:10.408Z,5.63
2019-04-16T08:46:40.408Z,6.10
2019-04-16T08:49:10.059Z,6.10
2019-04-16T08:51:38.819Z,5.77
2019-04-16T08:54:07.898Z,5.97
2019-04-16T08:56:36.828Z,5.80
2019-04-16T08:59:09.605Z,5.97
2019-04-16T09:01:36.272Z,6.27
2019-04-16T09:04:05.283Z,5.57
2019-04-16T09:06:34.134Z,5.90
2019-04-16T09:09:14.636Z,6.47
2019-04-16T09:11:39.898Z,6.40
2019-04-16T09:14:08.794Z,6.07
2019-04-16T09:16:39.267Z,5.63
2019-04-16T09:19:09.725Z,5.17
2019-04-16T09:21:43.455Z,5.43
2019-04-16T09:24:22.690Z,5.50
2019-04-16T09:27:12.414Z,5.83
2019-04-16T09:29:58.265Z,5.27
2019-04-16T09:32:31.219Z,6.00
2019-04-16T09:35:14.222Z,6.00
2019-04-16T09:37:58.934Z,6.37
2019-04-16T09:40:29.456Z,7.20
2019-04-16T09:42:59.748Z,5.93
2019-04-16T09:45:28.648Z,6.50
2019-04-16T09:47:57.571Z,5.50
2019-04-16T09:50:26.390Z,5.97
2019-04-16T09:52:56.157Z,6.10
2019-04-16T09:55:25.300Z,5.80
2019-04-16T09:57:54.167Z,5.17
2019-04-16T10:00:24.700Z,6.50
2019-04-16T10:02:55.197Z,5.27
2019-04-16T10:05:26.553Z,6.10
2019-04-16T10:07:56.918Z,6.93
2019-04-16T10:10:28.278Z,6.07
2019-04-16T10:12:55.811Z,6.33
2019-04-16T10:15:24.596Z,5.60
2019-04-16T10:17:53.611Z,5.63
2019-04-16T10:20:22.473Z,5.47
2019-04-16T10:22:51.366Z,5.60
2019-04-16T10:25:20.338Z,5.93
2019-04-16T10:27:50.894Z,5.97
2019-04-16T10:30:24.399Z,5.53
2019-04-16T10:32:53.386Z,5.80
2019-04-16T10:35:22.521Z,6.07
2019-04-16T10:37:51.459Z,5.80
2019-04-16T10:40:21.869Z,6.33
2019-04-16T10:43:04.595Z,6.13
2019-04-16T10:45:44.167Z,5.83
2019-04-16T10:48:30.872Z,6.00
2019-04-16T10:51:16.566Z,6.10
2019-04-16T10:54:02.074Z,5.73
2019-04-16T10:56:49.035Z,6.40
2019-04-16T10:59:35.758Z,5.43
2019-04-16T11:02:12.303Z,6.30
2019-04-16T11:04:43.300Z,6.60
2019-04-16T11:07:14.523Z,6.07
2019-04-16T11:09:43.294Z,5.77
2019-04-16T11:12:12.253Z,6.57
2019-04-16T11:14:41.169Z,5.73
2019-04-16T11:17:10.165Z,5.93
2019-04-16T11:19:39.285Z,5.60
2019-04-16T11:22:08.367Z,5.97
2019-04-16T11:24:37.420Z,6.30
2019-04-16T11:27:06.342Z,5.80
2019-04-16T11:29:35.173Z,5.10
2019-04-16T11:32:04.300Z,4.73
2019-04-16T11:34:33.159Z,5.23
2019-04-16T11:37:07.469Z,6.03
2019-04-16T11:39:32.623Z,5.10
2019-04-16T11:42:01.525Z,5.50
2019-04-16T11:44:30.452Z,5.67
2019-04-16T11:46:59.325Z,5.10
2019-04-16T11:49:28.248Z,5.57
2019-04-16T11:51:58.152Z,5.30
2019-04-16T11:54:27.082Z,6.27
2019-04-16T11:56:59.506Z,6.00
2019-04-16T11:59:26.426Z,6.03
2019-04-16T12:02:09.193Z,6.50
2019-04-16T12:04:58.827Z,5.83
2019-04-16T12:07:29.322Z,6.33
2019-04-16T12:10:15.726Z,5.83
2019-04-16T12:13:04.712Z,5.80
2019-04-16T12:15:47.103Z,5.90
2019-04-16T12:18:20.742Z,6.03
2019-04-16T12:20:57.204Z,6.17
2019-04-16T12:23:36.584Z,6.23
2019-04-16T12:26:12.967Z,5.40
2019-04-16T12:28:46.216Z,5.63
2019-04-16T12:31:32.836Z,6.60
2019-04-16T12:34:15.467Z,6.17
2019-04-16T12:36:57.798Z,5.80
2019-04-16T12:39:28.311Z,5.87
2019-04-16T12:42:00.171Z,5.57
2019-04-16T12:44:45.214Z,5.67
2019-04-16T12:47:17.913Z,5.50
2019-04-16T12:49:53.869Z,4.93
2019-04-16T12:52:24.270Z,6.03
2019-04-16T12:55:13.296Z,5.30
2019-04-16T12:57:47.282Z,5.10
2019-04-16T13:00:34.079Z,6.00
2019-04-16T13:03:18.147Z,4.93
2019-04-16T13:05:54.687Z,4.73
2019-04-16T13:08:34.090Z,5.47
2019-04-16T13:11:21.805Z,5.53
2019-04-16T13:13:52.291Z,5.10
2019-04-16T13:16:22.723Z,6.30
2019-04-16T13:18:59.199Z,5.53
2019-04-16T13:21:29.690Z,6.10
2019-04-16T13:24:00.101Z,4.93
2019-04-16T13:26:36.396Z,5.63
2019-04-16T13:29:06.793Z,5.53
2019-04-16T13:31:36.407Z,5.03
2019-04-16T13:34:06.173Z,5.57
2019-04-16T13:36:35.047Z,5.60
2019-04-16T13:39:09.870Z,5.10
2019-04-16T13:41:39.561Z,5.23
2019-04-16T13:44:10.058Z,5.70
2019-04-16T13:46:39.006Z,5.80
2019-04-16T13:49:10.244Z,6.50
2019-04-16T13:51:39.112Z,6.47
2019-04-16T13:54:12.133Z,5.60
2019-04-16T13:56:50.426Z,5.17
2019-04-16T13:59:23.094Z,6.67
2019-04-16T14:01:53.546Z,6.43
2019-04-16T14:04:22.452Z,6.50
2019-04-16T14:06:51.333Z,6.63
2019-04-16T14:09:20.213Z,6.50
2019-04-16T14:11:51.294Z,7.20
2019-04-16T14:14:22.579Z,7.33
2019-04-16T14:16:50.238Z,6.60
2019-04-16T14:19:19.075Z,6.90
2019-04-16T14:21:47.968Z,7.27
2019-04-16T14:24:16.859Z,6.00
2019-04-16T14:26:45.748Z,6.53
2019-04-16T14:29:14.748Z,6.77
2019-04-16T14:31:46.063Z,6.20
2019-04-16T14:34:18.127Z,6.07
2019-04-16T14:37:31.643Z,6.73
2019-04-16T14:40:02.287Z,6.43
2019-04-16T14:42:31.185Z,7.40
2019-04-16T14:45:20.094Z,5.40
2019-04-16T14:47:49.059Z,5.60
2019-04-16T14:50:19.893Z,6.37
2019-04-16T14:52:48.488Z,5.77
2019-04-16T14:55:35.411Z,5.87
2019-04-16T14:58:05.918Z,6.67
2019-04-16T15:00:39.338Z,6.53
2019-04-16T15:03:15.909Z,6.03
2019-04-16T15:05:55.335Z,5.53
2019-04-16T15:08:37.765Z,5.90
2019-04-16T15:11:11.240Z,5.97
2019-04-16T15:13:47.635Z,5.77
2019-04-16T15:16:22.360Z,6.37
2019-04-16T15:19:04.826Z,6.37
2019-04-16T15:21:35.265Z,6.30
2019-04-16T15:24:05.671Z,7.60
2019-04-16T15:26:38.694Z,7.90
2019-04-16T15:29:11.537Z,7.23
2019-04-16T15:31:44.628Z,7.00
2019-04-16T15:34:15.111Z,6.67
2019-04-16T15:36:49.916Z,8.00
2019-04-16T15:39:17.805Z,8.70
2019-04-16T15:42:04.619Z,8.00
2019-04-16T15:44:35.152Z,7.37
2019-04-16T15:47:21.984Z,8.30
2019-04-16T15:49:58.530Z,7.17
2019-04-16T15:52:31.701Z,7.13
2019-04-16T15:55:14.423Z,7.77
2019-04-16T15:58:04.624Z,7.07
2019-04-16T16:00:35.070Z,6.67
2019-04-16T16:03:05.758Z,6.87
2019-04-16T16:05:45.304Z,6.73
2019-04-16T16:08:18.640Z,6.63
2019-04-16T16:10:49.127Z,7.10
2019-04-16T16:13:17.962Z,6.70
2019-04-16T16:15:46.844Z,6.27
2019-04-16T16:18:15.821Z,6.47
2019-04-16T16:20:44.739Z,6.20
2019-04-16T16:23:13.518Z,6.20
2019-04-16T16:25:42.295Z,5.93
2019-04-16T16:28:11.178Z,6.03
2019-04-16T16:30:40.071Z,6.80
2019-04-16T16:33:08.893Z,5.37
2019-04-16T16:35:37.639Z,5.70
2019-04-16T16:38:06.562Z,6.13
2019-04-16T16:40:35.659Z,5.57
2019-04-16T16:43:07.960Z,5.00
2019-04-16T16:45:53.102Z,5.23
2019-04-16T16:48:23.666Z,5.97
2019-04-16T16:50:52.511Z,5.90
2019-04-16T16:53:39.231Z,5.30
2019-04-16T16:56:09.817Z,4.37
2019-04-16T16:58:43.172Z,4.53
2019-04-16T17:01:33.421Z,5.70
2019-04-16T17:04:00.721Z,5.07
2019-04-16T17:06:31.141Z,5.47
2019-04-16T17:09:00.107Z,5.33
2019-04-16T17:11:28.991Z,4.77
2019-04-16T17:14:01.287Z,5.53
2019-04-16T17:16:28.441Z,4.30
2019-04-16T17:18:57.331Z,4.97
2019-04-16T17:21:26.093Z,4.97
2019-04-16T17:23:55.112Z,4.53
2019-04-16T17:26:24.005Z,4.20
2019-04-16T17:28:52.797Z,4.10
2019-04-16T17:31:21.687Z,4.77
2019-04-16T17:33:51.531Z,4.57
2019-04-16T17:36:20.309Z,4.90
2019-04-16T17:38:49.193Z,5.70
2019-04-16T17:41:28.910Z,4.60
2019-04-16T17:44:03.525Z,5.03
2019-04-16T17:46:49.754Z,4.53
2019-04-16T17:49:23.154Z,5.67
2019-04-16T17:52:05.558Z,4.67
2019-04-16T17:54:36.344Z,5.40
2019-04-16T17:57:12.276Z,5.27
2019-04-16T17:59:51.904Z,5.70
2019-04-16T18:02:31.432Z,4.73
2019-04-16T18:05:18.147Z,5.60
2019-04-16T18:08:04.700Z,4.57
2019-04-16T18:10:51.146Z,5.13
2019-04-16T18:13:21.685Z,5.20
2019-04-16T18:15:53.465Z,5.17
2019-04-16T18:18:26.861Z,5.27
2019-04-16T18:21:00.222Z,4.57
2019-04-16T18:23:49.275Z,5.40
2019-04-16T18:26:28.614Z,4.63
2019-04-16T18:29:11.151Z,5.17
2019-04-16T18:32:00.377Z,4.40
2019-04-16T18:34:33.481Z,4.83
2019-04-16T18:37:19.862Z,4.87
2019-04-16T18:40:08.527Z,5.00
2019-04-16T18:42:41.565Z,5.27
2019-04-16T18:45:23.617Z,5.37
2019-04-16T18:48:04.942Z,4.83
2019-04-16T18:50:29.007Z,4.67
2019-04-16T18:53:00.566Z,5.57
2019-04-16T18:55:29.466Z,4.33
2019-04-16T18:57:58.774Z,4.90
2019-04-16T19:00:35.331Z,4.30
2019-04-16T19:03:04.453Z,5.00
2019-04-16T19:05:33.471Z,5.87
2019-04-16T19:08:02.284Z,5.50
2019-04-16T19:10:31.517Z,5.10
2019-04-16T19:13:00.681Z,4.80
2019-04-16T19:15:29.685Z,4.83
2019-04-16T19:17:58.712Z,4.67
2019-04-16T19:20:27.587Z,4.13
2019-04-16T19:22:56.500Z,4.20
2019-04-16T19:25:25.485Z,4.53
2019-04-16T19:27:54.352Z,4.07
2019-04-16T19:30:23.266Z,3.57
2019-04-16T19:32:52.565Z,3.37
2019-04-16T19:35:22.598Z,4.40
2019-04-16T19:37:51.995Z,3.90
2019-04-16T19:40:20.885Z,3.97
2019-04-16T19:42:49.883Z,3.63
2019-04-16T19:45:18.780Z,3.77
2019-04-16T19:47:47.619Z,4.00
2019-04-16T19:50:16.544Z,3.83
2019-04-16T19:52:45.835Z,3.77
2019-04-16T19:55:15.024Z,4.47
2019-04-16T19:57:44.688Z,4.20
2019-04-16T20:00:13.719Z,3.97
2019-04-16T20:02:42.643Z,4.50
2019-04-16T20:05:11.448Z,3.90
2019-04-16T20:07:41.474Z,3.73
2019-04-16T20:10:10.438Z,3.77
2019-04-16T20:12:39.224Z,4.07
2019-04-16T20:15:09.670Z,3.67
2019-04-16T20:17:38.869Z,3.90
2019-04-16T20:20:07.820Z,3.77
2019-04-16T20:22:36.637Z,3.80
2019-04-16T20:25:06.510Z,3.70
2019-04-16T20:27:36.192Z,3.53
2019-04-16T20:30:08.516Z,4.03
2019-04-16T20:32:37.423Z,3.70
2019-04-16T20:35:06.226Z,3.63
2019-04-16T20:37:34.900Z,4.37
2019-04-16T20:40:04.616Z,4.17
2019-04-16T20:42:33.516Z,4.43
2019-04-16T20:45:02.405Z,3.43
2019-04-16T20:47:31.284Z,3.77
2019-04-16T20:50:03.946Z,4.53
2019-04-16T20:52:30.877Z,4.37
2019-04-16T20:55:01.244Z,4.27
2019-04-16T20:57:30.032Z,5.07
2019-04-16T20:59:59.879Z,4.70
2019-04-16T21:02:30.477Z,4.87
2019-04-16T21:05:02.596Z,4.23
2019-04-16T21:07:29.701Z,5.40
2019-04-16T21:09:59.867Z,5.17
2019-04-16T21:12:28.886Z,4.37
2019-04-16T21:14:57.700Z,5.10
2019-04-16T21:17:26.691Z,4.90
2019-04-16T21:19:55.777Z,3.80
2019-04-16T21:22:24.984Z,4.47
2019-04-16T21:24:55.723Z,5.57
2019-04-16T21:27:24.613Z,4.63
2019-04-16T21:29:53.469Z,5.27
2019-04-16T21:32:24.033Z,4.60
2019-04-16T21:34:59.893Z,5.00
2019-04-16T21:37:41.272Z,4.37
2019-04-16T21:40:11.179Z,3.63
2019-04-16T21:42:40.047Z,4.43
2019-04-16T21:45:08.978Z,5.10
2019-04-16T21:47:37.850Z,4.80
2019-04-16T21:50:08.555Z,4.83
2019-04-16T21:52:37.568Z,4.50
2019-04-16T21:55:07.899Z,4.30
2019-04-16T21:57:36.666Z,4.37
2019-04-16T22:00:09.576Z,5.13
2019-04-16T22:02:39.978Z,5.37
2019-04-16T22:05:09.490Z,4.10
2019-04-16T22:07:38.422Z,4.43
2019-04-16T22:10:07.385Z,4.47
2019-04-16T22:12:36.276Z,5.23
2019-04-16T22:15:07.455Z,5.40
2019-04-16T22:17:36.801Z,4.93
2019-04-16T22:20:07.074Z,4.23
2019-04-16T22:22:36.025Z,4.43
2019-04-16T22:25:06.251Z,4.70
2019-04-16T22:27:36.860Z,4.33
2019-04-16T22:30:07.186Z,4.27
2019-04-16T22:32:36.148Z,5.37
2019-04-16T22:35:06.539Z,4.30
2019-04-16T22:37:35.469Z,4.97
2019-04-16T22:40:25.970Z,5.60
2019-04-16T22:43:06.233Z,4.43
2019-04-16T22:45:36.753Z,5.13
2019-04-16T22:48:05.642Z,5.47
2019-04-16T22:50:34.719Z,5.23
2019-04-16T22:53:05.169Z,4.77
2019-04-16T22:55:34.156Z,4.57
2019-04-16T22:58:04.785Z,5.30
2019-04-16T23:00:35.531Z,5.60
2019-04-16T23:03:04.804Z,5.93
2019-04-16T23:05:34.422Z,5.00
2019-04-16T23:08:03.433Z,5.43
2019-04-16T23:10:32.311Z,5.47
2019-04-16T23:13:01.673Z,5.90
2019-04-16T23:15:31.022Z,4.30
2019-04-16T23:17:59.921Z,5.43
2019-04-16T23:20:30.062Z,5.53
2019-04-16T23:22:59.411Z,5.73
2019-04-16T23:25:28.336Z,5.43
2019-04-16T23:27:57.707Z,5.63
2019-04-16T23:30:26.712Z,5.67
2019-04-16T23:32:58.994Z,4.53
2019-04-16T23:35:26.264Z,5.57
2019-04-16T23:37:59.248Z,5.57
2019-04-16T23:40:27.110Z,5.97
2019-04-16T23:42:58.032Z,6.50
2019-04-16T23:45:34.391Z,5.57
2019-04-16T23:48:14.179Z,5.83
2019-04-16T23:50:45.171Z,5.00
2019-04-16T23:53:17.979Z,5.87
2019-04-16T23:56:00.807Z,5.17
2019-04-16T23:58:37.173Z,6.03
